Time;durP1;ratioP1;P1;durP2;ratioP2;P2;SDS_P1;SDS_P2;PMS_P1;PMS_P2;Temp;Humidity;BMP_temperature;BMP_pressure;BME280_temperature;BME280_humidity;BME280_pressure;Samples;Min_cycle;Max_cycle;Signal;HPM_P1;HPM_P2
2020/12/29 00:00:08;;;;;;;23.90;13.13;;;;;;;;;;5090880;28;20720;-58
2020/12/29 00:02:33;;;;;;;31.58;14.18;;;;;;;;;;5088229;28;20024;-60
2020/12/29 00:04:59;;;;;;;24.57;13.40;;;;;;;;;;5090014;28;20040;-60
2020/12/29 00:07:24;;;;;;;28.10;14.93;;;;;;;;;;5092154;28;20499;-61
2020/12/29 00:09:49;;;;;;;27.17;15.27;;;;;;;;;;5091498;28;20502;-59
2020/12/29 00:12:15;;;;;;;27.00;13.77;;;;;;;;;;5092229;28;20047;-60
2020/12/29 00:14:40;;;;;;;23.23;13.00;;;;;;;;;;5091310;28;20032;-58
2020/12/29 00:17:06;;;;;;;24.93;14.40;;;;;;;;;;5092230;28;20174;-59
2020/12/29 00:19:31;;;;;;;25.87;12.97;;;;;;;;;;5092061;28;20046;-59
2020/12/29 00:21:56;;;;;;;24.97;14.53;;;;;;;;;;5073586;28;20133;-60
2020/12/29 00:24:22;;;;;;;25.87;13.60;;;;;;;;;;5091774;28;20443;-60
2020/12/29 00:26:47;;;;;;;24.53;14.10;;;;;;;;;;5091233;28;20410;-59
2020/12/29 00:29:13;;;;;;;24.70;13.40;;;;;;;;;;5073465;28;20103;-60
2020/12/29 00:31:38;;;;;;;25.63;14.37;;;;;;;;;;5091740;28;20103;-59
2020/12/29 00:34:03;;;;;;;27.33;15.07;;;;;;;;;;5090973;28;20028;-60
2020/12/29 00:36:29;;;;;;;31.10;16.77;;;;;;;;;;5073242;28;20438;-59
2020/12/29 00:38:55;;;;;;;27.83;14.98;;;;;;;;;;5091012;28;20074;-59
2020/12/29 00:41:20;;;;;;;33.97;18.70;;;;;;;;;;5091510;28;20085;-60
2020/12/29 00:43:46;;;;;;;32.30;16.83;;;;;;;;;;5090571;28;20042;-60
2020/12/29 00:46:13;;;;;;;35.38;19.23;;;;;;;;;;5073008;28;20507;-59
2020/12/29 00:48:39;;;;;;;28.50;15.95;;;;;;;;;;5091532;28;20024;-60
2020/12/29 00:51:08;;;;;;;25.77;14.47;;;;;;;;;;5072585;28;20051;-60
2020/12/29 00:53:38;;;;;;;32.28;16.15;;;;;;;;;;5073419;28;20024;-59
2020/12/29 00:56:07;;;;;;;32.90;16.40;;;;;;;;;;5091029;28;20028;-61
2020/12/29 00:58:33;;;;;;;34.45;17.80;;;;;;;;;;5091050;28;20502;-60
2020/12/29 01:00:59;;;;;;;32.30;18.63;;;;;;;;;;5072358;28;20036;-60
2020/12/29 01:03:25;;;;;;;29.77;15.82;;;;;;;;;;5091449;28;20032;-60
2020/12/29 01:05:51;;;;;;;30.38;16.95;;;;;;;;;;5072130;28;20056;-59
2020/12/29 01:08:17;;;;;;;33.43;17.80;;;;;;;;;;5072711;28;20051;-59
2020/12/29 01:10:52;;;;;;;28.52;16.55;;;;;;;;;;5072768;28;20060;-60
2020/12/29 01:13:35;;;;;;;28.38;15.57;;;;;;;;;;5058959;28;20032;-61
2020/12/29 01:16:04;;;;;;;30.45;18.33;;;;;;;;;;5072669;28;20150;-59
2020/12/29 01:18:31;;;;;;;27.23;15.57;;;;;;;;;;5056600;28;20059;-60
2020/12/29 01:20:56;;;;;;;26.87;15.60;;;;;;;;;;5090595;28;20024;-60
2020/12/29 01:23:21;;;;;;;25.53;13.60;;;;;;;;;;5090824;28;20441;-60
2020/12/29 01:25:48;;;;;;;22.93;13.60;;;;;;;;;;5072126;28;20040;-59
2020/12/29 01:28:13;;;;;;;21.30;13.15;;;;;;;;;;5091363;28;20054;-60
2020/12/29 01:30:39;;;;;;;21.70;13.53;;;;;;;;;;5072724;28;20028;-59
2020/12/29 01:33:05;;;;;;;22.63;12.97;;;;;;;;;;5090917;28;20725;-61
2020/12/29 01:35:30;;;;;;;27.35;14.10;;;;;;;;;;5090928;28;20062;-60
2020/12/29 01:37:56;;;;;;;23.73;12.93;;;;;;;;;;5090357;28;20024;-61
2020/12/29 01:40:21;;;;;;;21.93;11.70;;;;;;;;;;5072871;28;20028;-60
2020/12/29 01:42:46;;;;;;;23.53;12.80;;;;;;;;;;5072223;28;20068;-57
2020/12/29 01:45:13;;;;;;;23.27;13.00;;;;;;;;;;5090948;28;20487;-59
2020/12/29 01:47:38;;;;;;;;;;;;;;;;;;5091153;28;20476;-61
2020/12/29 01:50:14;;;;;;;20.10;11.53;;;;;;;;;;5090141;28;19988;-61
2020/12/29 01:52:40;;;;;;;21.83;12.25;;;;;;;;;;5090806;28;20134;-58
2020/12/29 01:55:06;;;;;;;22.60;12.90;;;;;;;;;;5071917;28;20198;-60
2020/12/29 01:57:32;;;;;;;21.70;13.40;;;;;;;;;;5072624;28;20024;-61
2020/12/29 01:59:57;;;;;;;21.08;12.70;;;;;;;;;;5090168;28;20031;-59
2020/12/29 02:02:23;;;;;;;24.03;12.77;;;;;;;;;;5072553;28;20028;-60
2020/12/29 02:04:48;;;;;;;21.67;13.13;;;;;;;;;;5066078;28;20055;-54
2020/12/29 02:07:14;;;;;;;26.07;14.37;;;;;;;;;;5090410;28;20253;-59
2020/12/29 02:09:40;;;;;;;21.33;12.23;;;;;;;;;;5070425;28;20033;-60
2020/12/29 02:12:23;;;;;;;24.20;13.37;;;;;;;;;;5052079;28;20047;-59
2020/12/29 02:14:49;;;;;;;19.50;12.73;;;;;;;;;;5073800;28;20040;-59
2020/12/29 02:17:14;;;;;;;24.95;14.52;;;;;;;;;;5073527;28;20029;-60
2020/12/29 02:19:39;;;;;;;24.37;14.53;;;;;;;;;;5056007;28;20033;-60
2020/12/29 02:22:05;;;;;;;22.97;13.80;;;;;;;;;;5055057;28;20388;-60
2020/12/29 02:24:30;;;;;;;24.97;14.70;;;;;;;;;;5078418;28;20027;-61
2020/12/29 02:26:55;;;;;;;26.17;15.43;;;;;;;;;;5093280;28;20108;-60
2020/12/29 02:29:21;;;;;;;21.97;13.83;;;;;;;;;;5093628;28;20024;-60
2020/12/29 02:31:46;;;;;;;22.33;13.37;;;;;;;;;;5093563;28;20028;-61
2020/12/29 02:34:11;;;;;;;25.33;14.67;;;;;;;;;;5093162;28;20131;-59
2020/12/29 02:36:37;;;;;;;22.23;13.80;;;;;;;;;;5093733;28;20387;-59
2020/12/29 02:39:02;;;;;;;23.80;13.97;;;;;;;;;;5093233;28;20391;-59
2020/12/29 02:41:27;;;;;;;25.60;15.03;;;;;;;;;;5058851;28;20480;-59
2020/12/29 02:43:53;;;;;;;26.93;13.60;;;;;;;;;;5092863;28;20455;-58
2020/12/29 02:46:18;;;;;;;29.97;14.97;;;;;;;;;;5075664;28;20119;-59
2020/12/29 02:48:43;;;;;;;27.47;15.17;;;;;;;;;;5093511;28;20054;-59
2020/12/29 02:51:13;;;;;;;27.03;14.97;;;;;;;;;;5058050;28;20434;-59
2020/12/29 02:53:38;;;;;;;25.80;14.65;;;;;;;;;;5093392;28;20115;-60
2020/12/29 02:56:04;;;;;;;25.23;15.37;;;;;;;;;;5074337;28;20514;-60
2020/12/29 02:58:29;;;;;;;30.08;15.32;;;;;;;;;;5093381;28;20105;-58
2020/12/29 03:00:55;;;;;;;23.53;14.60;;;;;;;;;;5092702;28;20028;-59
2020/12/29 03:03:20;;;;;;;27.57;14.93;;;;;;;;;;5092966;28;20060;-60
2020/12/29 03:05:45;;;;;;;23.00;14.50;;;;;;;;;;5093049;28;20422;-60
2020/12/29 03:08:11;;;;;;;26.50;15.77;;;;;;;;;;5074172;28;20031;-59
2020/12/29 03:10:36;;;;;;;30.57;16.23;;;;;;;;;;5075194;28;20043;-60
2020/12/29 03:13:02;;;;;;;25.53;15.20;;;;;;;;;;5092297;28;20032;-59
2020/12/29 03:15:27;;;;;;;29.17;16.47;;;;;;;;;;5092881;28;20032;-60
2020/12/29 03:17:52;;;;;;;29.90;16.27;;;;;;;;;;5092987;28;20467;-59
2020/12/29 03:20:18;;;;;;;26.97;16.20;;;;;;;;;;5092237;28;20460;-60
2020/12/29 03:22:43;;;;;;;26.37;16.20;;;;;;;;;;5092679;28;20072;-60
2020/12/29 03:25:08;;;;;;;25.77;15.83;;;;;;;;;;5091834;28;20032;-59
2020/12/29 03:27:34;;;;;;;26.03;16.13;;;;;;;;;;5092699;28;20024;-60
2020/12/29 03:29:59;;;;;;;29.50;17.73;;;;;;;;;;5092514;28;20031;-59
2020/12/29 03:32:24;;;;;;;27.10;15.33;;;;;;;;;;5092646;28;20032;-60
2020/12/29 03:34:50;;;;;;;28.00;16.00;;;;;;;;;;5074231;28;20355;-59
2020/12/29 03:37:16;;;;;;;30.80;17.83;;;;;;;;;;5091634;28;20073;-60
2020/12/29 03:39:42;;;;;;;26.08;15.80;;;;;;;;;;5092457;28;20072;-57
2020/12/29 03:42:07;;;;;;;30.55;17.35;;;;;;;;;;5091642;28;20025;-57
2020/12/29 03:44:33;;;;;;;33.13;17.23;;;;;;;;;;5092170;28;20024;-59
2020/12/29 03:46:59;;;;;;;27.65;16.15;;;;;;;;;;5091747;28;20043;-58
2020/12/29 03:49:24;;;;;;;30.70;17.35;;;;;;;;;;5074095;28;20100;-59
2020/12/29 03:51:50;;;;;;;31.43;16.90;;;;;;;;;;5092367;28;20412;-60
2020/12/29 03:54:15;;;;;;;32.17;17.47;;;;;;;;;;5091400;28;20036;-58
2020/12/29 03:56:40;;;;;;;31.60;18.60;;;;;;;;;;5074133;28;20028;-58
2020/12/29 03:59:06;;;;;;;35.23;19.53;;;;;;;;;;5056667;28;20024;-58
2020/12/29 04:01:31;;;;;;;36.50;19.70;;;;;;;;;;5091870;28;20024;-59
2020/12/29 04:03:56;;;;;;;36.10;18.90;;;;;;;;;;5091644;28;20380;-57
2020/12/29 04:06:22;;;;;;;37.00;20.60;;;;;;;;;;5090976;28;20059;-60
2020/12/29 04:08:47;;;;;;;44.70;22.17;;;;;;;;;;5092126;28;20032;-60
2020/12/29 04:11:13;;;;;;;36.55;20.88;;;;;;;;;;5073108;28;20035;-56
2020/12/29 04:13:39;;;;;;;42.27;23.00;;;;;;;;;;5073592;28;20051;-59
2020/12/29 04:16:04;;;;;;;43.53;22.00;;;;;;;;;;5091460;28;20046;-59
2020/12/29 04:18:30;;;;;;;44.73;22.50;;;;;;;;;;5092016;28;20024;-60
2020/12/29 04:20:55;;;;;;;39.23;20.23;;;;;;;;;;5091836;28;20086;-60
2020/12/29 04:23:20;;;;;;;43.40;21.57;;;;;;;;;;5091200;28;20028;-59
2020/12/29 04:25:46;;;;;;;37.47;21.57;;;;;;;;;;5073485;28;20127;-60
2020/12/29 04:28:11;;;;;;;38.67;20.67;;;;;;;;;;5090839;28;20063;-60
2020/12/29 04:30:36;;;;;;;35.87;20.47;;;;;;;;;;5073462;28;20035;-57
2020/12/29 04:33:02;;;;;;;39.40;20.70;;;;;;;;;;5072861;28;20420;-55
2020/12/29 04:35:27;;;;;;;37.13;21.30;;;;;;;;;;5091230;28;20036;-59
2020/12/29 04:37:53;;;;;;;36.23;20.50;;;;;;;;;;5073180;28;20157;-60
2020/12/29 04:40:18;;;;;;;37.47;20.97;;;;;;;;;;5072438;28;20026;-59
2020/12/29 04:42:44;;;;;;;38.60;20.27;;;;;;;;;;5091212;28;20099;-59
2020/12/29 04:45:09;;;;;;;35.20;20.40;;;;;;;;;;5090731;28;20035;-60
2020/12/29 04:47:35;;;;;;;38.03;20.73;;;;;;;;;;5091504;28;20675;-60
2020/12/29 04:50:01;;;;;;;40.90;23.50;;;;;;;;;;5073140;28;20028;-60
2020/12/29 04:52:26;;;;;;;40.28;22.27;;;;;;;;;;5090660;28;20028;-59
2020/12/29 04:54:53;;;;;;;40.63;21.45;;;;;;;;;;5091384;28;20020;-60
2020/12/29 04:57:19;;;;;;;44.85;21.95;;;;;;;;;;5090528;28;20035;-59
2020/12/29 04:59:44;;;;;;;44.83;23.50;;;;;;;;;;5091150;28;20559;-60
2020/12/29 05:02:10;;;;;;;43.90;24.10;;;;;;;;;;5090445;28;20055;-59
2020/12/29 05:04:35;;;;;;;42.93;24.07;;;;;;;;;;5090922;28;20440;-60
2020/12/29 05:07:01;;;;;;;45.27;24.43;;;;;;;;;;5091478;28;20498;-59
2020/12/29 05:09:26;;;;;;;44.77;25.43;;;;;;;;;;5090553;28;20421;-60
2020/12/29 05:11:52;;;;;;;45.13;25.53;;;;;;;;;;5091239;28;20048;-57
2020/12/29 05:14:18;;;;;;;45.25;25.48;;;;;;;;;;5090592;28;20256;-60
2020/12/29 05:16:43;;;;;;;43.28;24.55;;;;;;;;;;5091157;28;20036;-59
2020/12/29 05:19:10;;;;;;;42.53;24.83;;;;;;;;;;5072503;28;20329;-59
2020/12/29 05:21:36;;;;;;;44.22;24.85;;;;;;;;;;5072827;28;20024;-60
2020/12/29 05:24:22;;;;;;;46.05;24.13;;;;;;;;;;5072990;28;20388;-59
2020/12/29 05:26:49;;;;;;;47.67;25.33;;;;;;;;;;5072067;28;20127;-60
2020/12/29 05:29:15;;;;;;;47.58;24.60;;;;;;;;;;5090103;28;20060;-60
2020/12/29 05:31:41;;;;;;;46.13;25.27;;;;;;;;;;5091057;28;20124;-59
2020/12/29 05:34:07;;;;;;;45.45;24.60;;;;;;;;;;5090985;28;20148;-58
2020/12/29 05:36:37;;;;;;;45.75;23.30;;;;;;;;;;5090956;28;20127;-59
2020/12/29 05:39:07;;;;;;;45.90;22.35;;;;;;;;;;5090595;28;20044;-59
2020/12/29 05:41:36;;;;;;;47.00;22.67;;;;;;;;;;5090780;28;20036;-60
2020/12/29 05:44:02;;;;;;;42.42;21.60;;;;;;;;;;5090503;28;20392;-59
2020/12/29 05:46:28;;;;;;;44.55;22.83;;;;;;;;;;5090179;28;20039;-59
2020/12/29 05:48:54;;;;;;;40.03;20.17;;;;;;;;;;5093866;28;20533;-59
2020/12/29 05:51:20;;;;;;;38.10;18.98;;;;;;;;;;5094145;28;20078;-59
2020/12/29 05:53:46;;;;;;;45.15;21.27;;;;;;;;;;5076271;28;20024;-60
2020/12/29 05:56:12;;;;;;;42.05;20.05;;;;;;;;;;5094176;28;20036;-60
2020/12/29 05:58:37;;;;;;;43.93;20.43;;;;;;;;;;5094822;28;20021;-59
2020/12/29 06:01:03;;;;;;;41.23;18.77;;;;;;;;;;5094563;28;20024;-59
2020/12/29 06:03:29;;;;;;;43.80;20.37;;;;;;;;;;5093709;28;20012;-60
2020/12/29 06:05:57;;;;;;;41.45;20.92;;;;;;;;;;5093963;28;20380;-61
2020/12/29 06:08:26;;;;;;;43.67;20.10;;;;;;;;;;5093812;28;20434;-60
2020/12/29 06:10:57;;;;;;;44.28;19.17;;;;;;;;;;5094446;28;20035;-61
2020/12/29 06:13:25;;;;;;;54.38;21.83;;;;;;;;;;5093792;28;20028;-60
2020/12/29 06:15:56;;;;;;;45.45;20.55;;;;;;;;;;5094442;28;20036;-59
2020/12/29 06:18:31;;;;;;;47.63;20.08;;;;;;;;;;5093763;28;20112;-59
2020/12/29 06:20:57;;;;;;;54.17;20.77;;;;;;;;;;5094353;28;20032;-60
2020/12/29 06:23:25;;;;;;;47.88;19.52;;;;;;;;;;5093627;28;20038;-59
2020/12/29 06:25:50;;;;;;;49.75;20.48;;;;;;;;;;5076065;28;20110;-60
2020/12/29 06:28:18;;;;;;;42.47;18.17;;;;;;;;;;5075339;28;20099;-60
2020/12/29 06:30:44;;;;;;;46.65;18.67;;;;;;;;;;5093795;28;20039;-60
2020/12/29 06:33:11;;;;;;;40.17;17.88;;;;;;;;;;5093851;28;20404;-60
2020/12/29 06:35:36;;;;;;;40.53;18.65;;;;;;;;;;5092884;28;20119;-60
2020/12/29 06:38:20;;;;;;;42.17;16.50;;;;;;;;;;5074664;28;20104;-59
2020/12/29 06:40:46;;;;;;;42.53;17.45;;;;;;;;;;5090722;28;20032;-59
2020/12/29 06:43:12;;;;;;;45.27;18.50;;;;;;;;;;5092033;28;20030;-57
2020/12/29 06:45:37;;;;;;;50.65;18.45;;;;;;;;;;5090690;28;20020;-59
2020/12/29 06:48:16;;;;;;;72.50;23.03;;;;;;;;;;5073978;28;20035;-59
2020/12/29 06:50:42;;;;;;;62.72;22.95;;;;;;;;;;5072570;28;20041;-59
2020/12/29 06:53:08;;;;;;;65.13;21.70;;;;;;;;;;5092775;28;20020;-61
2020/12/29 06:55:37;;;;;;;60.47;24.13;;;;;;;;;;5057447;28;20238;-60
2020/12/29 06:58:03;;;;;;;62.55;23.33;;;;;;;;;;5092476;28;20024;-60
2020/12/29 07:00:28;;;;;;;72.93;25.50;;;;;;;;;;5092826;28;20401;-59
2020/12/29 07:02:55;;;;;;;72.90;26.00;;;;;;;;;;5074835;28;20028;-59
2020/12/29 07:05:28;;;;;;;54.67;18.77;;;;;;;;;;5091832;28;20075;-59
2020/12/29 07:07:54;;;;;;;61.42;20.98;;;;;;;;;;5092564;28;20077;-59
2020/12/29 07:10:20;;;;;;;62.05;23.65;;;;;;;;;;5092338;28;20035;-59
2020/12/29 07:12:47;;;;;;;57.35;23.63;;;;;;;;;;5092641;28;20024;-59
2020/12/29 07:15:13;;;;;;;54.03;21.67;;;;;;;;;;5074450;28;20038;-58
2020/12/29 07:17:38;;;;;;;51.72;20.40;;;;;;;;;;5092330;28;20135;-59
2020/12/29 07:20:23;;;;;;;49.20;21.80;;;;;;;;;;5093165;28;20497;-59
2020/12/29 07:22:55;;;;;;;49.00;20.85;;;;;;;;;;5074748;28;20070;-61
2020/12/29 07:25:22;;;;;;;50.03;20.63;;;;;;;;;;5092028;28;20035;-59
2020/12/29 07:27:48;;;;;;;59.28;22.70;;;;;;;;;;5074771;28;20074;-58
2020/12/29 07:30:13;;;;;;;;;;;;;;;;;;5093269;28;20020;-57
2020/12/29 07:32:39;;;;;;;57.30;23.60;;;;;;;;;;5092312;28;19962;-61
2020/12/29 07:35:04;;;;;;;58.80;24.80;;;;;;;;;;5057820;28;20109;-60
2020/12/29 07:37:30;;;;;;;55.50;23.20;;;;;;;;;;5092067;28;20020;-60
2020/12/29 07:39:56;;;;;;;51.72;22.60;;;;;;;;;;5074389;28;20123;-59
2020/12/29 07:42:21;;;;;;;57.73;24.23;;;;;;;;;;5091964;28;20442;-60
2020/12/29 07:44:48;;;;;;;62.72;24.25;;;;;;;;;;5092414;28;20032;-60
2020/12/29 07:47:13;;;;;;;54.67;23.87;;;;;;;;;;5092149;28;20032;-59
2020/12/29 07:49:39;;;;;;;54.33;22.43;;;;;;;;;;5091477;28;20031;-59
2020/12/29 07:52:04;;;;;;;51.30;23.00;;;;;;;;;;5074306;28;20032;-60
2020/12/29 07:54:30;;;;;;;48.00;21.37;;;;;;;;;;5091635;28;20256;-60
2020/12/29 07:56:55;;;;;;;50.90;22.23;;;;;;;;;;5092499;28;20040;-59
2020/12/29 07:59:23;;;;;;;42.47;18.90;;;;;;;;;;5091415;28;20016;-60
2020/12/29 08:01:49;;;;;;;43.08;19.70;;;;;;;;;;5091804;28;20093;-59
2020/12/29 08:04:33;;;;;;;44.57;20.17;;;;;;;;;;5091857;28;20472;-60
2020/12/29 08:06:59;;;;;;;39.10;18.45;;;;;;;;;;5073305;28;20052;-61
2020/12/29 08:09:24;;;;;;;34.60;17.58;;;;;;;;;;5090848;28;20081;-58
2020/12/29 08:11:50;;;;;;;37.75;17.13;;;;;;;;;;5091846;28;20051;-60
2020/12/29 08:14:15;;;;;;;41.73;19.97;;;;;;;;;;5092002;28;20451;-59
2020/12/29 08:16:41;;;;;;;36.70;16.50;;;;;;;;;;5073278;28;20525;-59
2020/12/29 08:19:09;;;;;;;32.67;16.67;;;;;;;;;;5092309;28;20028;-59
2020/12/29 08:21:34;;;;;;;36.30;17.00;;;;;;;;;;5072777;28;20383;-60
2020/12/29 08:24:01;;;;;;;34.07;17.23;;;;;;;;;;5073603;28;20050;-60
2020/12/29 08:26:26;;;;;;;36.33;17.80;;;;;;;;;;5091465;28;20281;-59
2020/12/29 08:28:51;;;;;;;37.53;16.83;;;;;;;;;;5092295;28;20092;-59
2020/12/29 08:31:18;;;;;;;36.60;18.00;;;;;;;;;;5091715;28;20384;-60
2020/12/29 08:33:44;;;;;;;37.83;17.42;;;;;;;;;;5091440;28;20012;-60
2020/12/29 08:36:11;;;;;;;32.25;16.92;;;;;;;;;;5092161;28;20597;-59
2020/12/29 08:38:39;;;;;;;32.90;16.85;;;;;;;;;;5072784;28;20051;-60
2020/12/29 08:41:05;;;;;;;37.22;17.33;;;;;;;;;;5091603;28;20093;-59
2020/12/29 08:43:34;;;;;;;38.47;17.98;;;;;;;;;;5091167;28;20052;-60
2020/12/29 08:46:03;;;;;;;40.35;17.65;;;;;;;;;;5091534;28;20121;-59
2020/12/29 08:48:28;;;;;;;38.35;17.08;;;;;;;;;;5072781;28;20032;-59
2020/12/29 08:50:54;;;;;;;36.83;17.30;;;;;;;;;;5091141;28;20332;-59
2020/12/29 08:53:23;;;;;;;38.60;18.53;;;;;;;;;;5091468;28;20123;-60
2020/12/29 08:55:48;;;;;;;37.25;18.42;;;;;;;;;;5090276;28;20028;-60
2020/12/29 08:58:13;;;;;;;39.07;18.30;;;;;;;;;;5090222;28;20078;-59
2020/12/29 09:00:43;;;;;;;37.83;17.67;;;;;;;;;;5090392;28;20036;-59
2020/12/29 09:03:20;;;;;;;36.78;17.75;;;;;;;;;;5091006;28;20120;-59
2020/12/29 09:05:45;;;;;;;37.13;18.38;;;;;;;;;;5090037;28;20383;-59
2020/12/29 09:08:10;;;;;;;39.10;18.27;;;;;;;;;;5075393;28;20433;-60
2020/12/29 09:10:35;;;;;;;35.93;18.67;;;;;;;;;;5089633;28;20387;-59
2020/12/29 09:13:08;;;;;;;36.50;18.13;;;;;;;;;;5090498;28;20436;-57
2020/12/29 09:15:34;;;;;;;43.60;19.85;;;;;;;;;;5090312;28;20032;-58
2020/12/29 09:18:00;;;;;;;38.55;18.15;;;;;;;;;;5090785;28;20365;-59
2020/12/29 09:20:26;;;;;;;41.23;20.53;;;;;;;;;;5094450;28;20035;-56
2020/12/29 09:22:55;;;;;;;42.47;18.77;;;;;;;;;;5114082;28;20031;-58
2020/12/29 09:25:22;;;;;;;39.42;18.42;;;;;;;;;;5115237;28;20168;-59
2020/12/29 09:27:47;;;;;;;44.40;17.73;;;;;;;;;;5114819;28;20039;-58
2020/12/29 09:30:14;;;;;;;35.50;18.07;;;;;;;;;;5115623;28;20043;-60
2020/12/29 09:32:40;;;;;;;38.60;18.40;;;;;;;;;;5114960;28;20042;-59
2020/12/29 09:35:26;;;;;;;36.20;17.53;;;;;;;;;;5114828;28;20035;-59
2020/12/29 09:37:52;;;;;;;30.23;16.73;;;;;;;;;;5083895;28;20044;-59
2020/12/29 09:40:17;;;;;;;35.10;16.80;;;;;;;;;;5094282;28;20161;-60
2020/12/29 09:42:42;;;;;;;34.60;17.10;;;;;;;;;;5093714;28;20106;-59
2020/12/29 09:45:08;;;;;;;27.80;14.77;;;;;;;;;;5094132;28;20125;-59
2020/12/29 09:47:33;;;;;;;25.57;12.73;;;;;;;;;;5093492;28;20157;-59
2020/12/29 09:49:58;;;;;;;20.73;11.83;;;;;;;;;;5075423;28;20040;-60
2020/12/29 09:52:28;;;;;;;20.60;11.90;;;;;;;;;;5093490;28;20031;-60
2020/12/29 09:54:53;;;;;;;19.37;11.53;;;;;;;;;;5093936;28;20078;-60
2020/12/29 09:57:19;;;;;;;17.90;11.00;;;;;;;;;;5094526;28;20253;-59
2020/12/29 09:59:44;;;;;;;21.20;11.07;;;;;;;;;;5094048;28;20032;-59
2020/12/29 10:02:09;;;;;;;24.17;11.63;;;;;;;;;;5094681;28;20459;-60
2020/12/29 10:04:35;;;;;;;26.93;10.77;;;;;;;;;;5094189;28;20359;-60
2020/12/29 10:07:00;;;;;;;19.33;10.27;;;;;;;;;;5096574;28;20051;-61
2020/12/29 10:09:25;;;;;;;23.33;11.00;;;;;;;;;;5096597;28;20031;-59
2020/12/29 10:11:51;;;;;;;22.30;12.17;;;;;;;;;;5113974;28;20157;-59
2020/12/29 10:14:16;;;;;;;18.90;10.67;;;;;;;;;;5114589;28;20035;-59
2020/12/29 10:16:41;;;;;;;20.43;11.37;;;;;;;;;;5113726;28;20027;-60
2020/12/29 10:19:07;;;;;;;25.70;13.67;;;;;;;;;;5078837;28;20055;-59
2020/12/29 10:21:32;;;;;;;22.73;12.37;;;;;;;;;;5074127;28;20040;-58
2020/12/29 10:23:57;;;;;;;23.67;13.03;;;;;;;;;;5094476;28;20472;-59
2020/12/29 10:26:23;;;;;;;27.70;14.10;;;;;;;;;;5075851;28;20364;-59
2020/12/29 10:28:48;;;;;;;26.30;13.67;;;;;;;;;;5093656;28;20028;-60
2020/12/29 10:31:13;;;;;;;30.73;15.83;;;;;;;;;;5093685;28;20035;-60
2020/12/29 10:33:39;;;;;;;31.30;16.40;;;;;;;;;;5054545;28;20024;-59
2020/12/29 10:36:04;;;;;;;37.07;16.50;;;;;;;;;;5092714;28;20482;-59
2020/12/29 10:38:30;;;;;;;56.13;22.47;;;;;;;;;;5074728;28;20115;-60
2020/12/29 10:40:56;;;;;;;39.93;17.83;;;;;;;;;;5074984;28;20004;-59
2020/12/29 10:43:21;;;;;;;42.80;19.27;;;;;;;;;;5091647;28;20490;-60
2020/12/29 10:45:47;;;;;;;42.60;20.43;;;;;;;;;;5092907;28;20428;-60
2020/12/29 10:48:12;;;;;;;41.57;21.87;;;;;;;;;;5093474;28;20065;-60
2020/12/29 10:50:38;;;;;;;48.43;23.27;;;;;;;;;;5073917;28;20376;-60
2020/12/29 10:53:03;;;;;;;46.13;24.53;;;;;;;;;;5090604;28;20024;-59
2020/12/29 10:55:28;;;;;;;49.33;23.73;;;;;;;;;;5092369;28;20419;-59
2020/12/29 10:57:54;;;;;;;47.73;24.43;;;;;;;;;;5090923;28;20028;-58
2020/12/29 11:00:19;;;;;;;49.43;24.87;;;;;;;;;;5091784;28;20468;-60
2020/12/29 11:02:44;;;;;;;45.17;22.33;;;;;;;;;;5092996;28;20035;-58
2020/12/29 11:05:10;;;;;;;43.00;22.07;;;;;;;;;;5092569;28;20032;-60
2020/12/29 11:07:35;;;;;;;45.07;22.87;;;;;;;;;;5090367;28;20036;-58
2020/12/29 11:10:00;;;;;;;35.77;20.87;;;;;;;;;;5093093;28;20131;-60
2020/12/29 11:12:26;;;;;;;36.87;20.37;;;;;;;;;;5093136;28;20055;-59
2020/12/29 11:14:51;;;;;;;36.00;19.47;;;;;;;;;;5092107;28;20089;-59
2020/12/29 11:17:16;;;;;;;37.30;20.17;;;;;;;;;;5092609;28;20098;-60
2020/12/29 11:19:42;;;;;;;37.17;19.30;;;;;;;;;;5091909;28;20314;-60
2020/12/29 11:22:07;;;;;;;30.23;17.13;;;;;;;;;;5091969;28;20418;-59
2020/12/29 11:24:32;;;;;;;31.60;16.23;;;;;;;;;;5092503;28;20086;-61
2020/12/29 11:26:58;;;;;;;43.83;18.17;;;;;;;;;;5073395;28;20527;-59
2020/12/29 11:29:23;;;;;;;36.43;19.50;;;;;;;;;;5074120;28;20418;-59
2020/12/29 11:31:48;;;;;;;35.03;20.07;;;;;;;;;;5091851;28;20024;-60
2020/12/29 11:34:14;;;;;;;36.73;19.17;;;;;;;;;;5056669;28;20026;-57
2020/12/29 11:36:39;;;;;;;41.07;21.43;;;;;;;;;;5073082;28;20032;-57
2020/12/29 11:39:04;;;;;;;40.67;22.60;;;;;;;;;;5091708;28;20093;-59
2020/12/29 11:41:30;;;;;;;40.07;21.83;;;;;;;;;;5073853;28;20349;-59
2020/12/29 11:43:55;;;;;;;34.97;18.40;;;;;;;;;;5091231;28;20305;-59
2020/12/29 11:46:20;;;;;;;36.40;18.97;;;;;;;;;;5090908;28;20119;-60
2020/12/29 11:48:47;;;;;;;33.77;19.10;;;;;;;;;;5091109;28;20424;-58
2020/12/29 11:51:12;;;;;;;32.20;18.25;;;;;;;;;;5091571;28;20024;-60
2020/12/29 11:53:37;;;;;;;33.93;16.63;;;;;;;;;;5091106;28;20031;-57
2020/12/29 11:56:03;;;;;;;37.77;18.70;;;;;;;;;;5091438;28;20481;-59
2020/12/29 11:58:28;;;;;;;32.03;18.53;;;;;;;;;;5073806;28;20028;-60
2020/12/29 12:00:54;;;;;;;30.52;16.27;;;;;;;;;;5091443;28;20104;-60
2020/12/29 12:03:19;;;;;;;32.87;16.00;;;;;;;;;;5073972;28;20060;-60
2020/12/29 12:05:45;;;;;;;31.83;16.70;;;;;;;;;;5091270;28;20468;-60
2020/12/29 12:08:10;;;;;;;39.50;18.53;;;;;;;;;;5092033;28;20054;-60
2020/12/29 12:10:35;;;;;;;31.63;17.87;;;;;;;;;;5073766;28;20035;-60
2020/12/29 12:13:00;;;;;;;34.20;17.43;;;;;;;;;;5091519;28;20035;-61
2020/12/29 12:15:26;;;;;;;30.77;17.20;;;;;;;;;;5091889;28;20487;-60
2020/12/29 12:17:51;;;;;;;24.73;14.50;;;;;;;;;;5091029;28;20478;-59
2020/12/29 12:20:16;;;;;;;30.83;15.87;;;;;;;;;;5091930;28;20034;-60
2020/12/29 12:22:42;;;;;;;24.57;13.27;;;;;;;;;;5091677;28;20044;-59
2020/12/29 12:25:07;;;;;;;26.27;13.87;;;;;;;;;;5092490;28;20054;-59
2020/12/29 12:27:33;;;;;;;25.93;14.03;;;;;;;;;;5073573;28;20024;-61
2020/12/29 12:29:58;;;;;;;23.30;13.30;;;;;;;;;;5091494;28;20120;-60
2020/12/29 12:32:23;;;;;;;25.70;13.60;;;;;;;;;;5091867;28;20391;-61
2020/12/29 12:34:49;;;;;;;25.43;14.00;;;;;;;;;;5072879;28;20040;-60
2020/12/29 12:37:14;;;;;;;27.47;14.73;;;;;;;;;;5073204;28;20028;-61
2020/12/29 12:39:43;;;;;;;32.27;17.63;;;;;;;;;;5091700;28;20035;-60
2020/12/29 12:42:09;;;;;;;25.60;13.02;;;;;;;;;;5091863;28;20124;-60
2020/12/29 12:44:35;;;;;;;27.25;13.32;;;;;;;;;;5073306;28;20036;-60
2020/12/29 12:47:00;;;;;;;35.17;18.25;;;;;;;;;;5090723;28;20032;-61
2020/12/29 12:49:25;;;;;;;27.20;13.70;;;;;;;;;;5091329;28;20032;-60
2020/12/29 12:51:51;;;;;;;25.50;13.40;;;;;;;;;;5072476;28;20040;-62
2020/12/29 12:54:16;;;;;;;25.73;12.80;;;;;;;;;;5091479;28;20016;-60
2020/12/29 12:56:44;;;;;;;21.07;11.57;;;;;;;;;;5091094;28;20058;-60
2020/12/29 12:59:13;;;;;;;24.70;12.70;;;;;;;;;;5091480;28;20097;-60
2020/12/29 13:01:39;;;;;;;27.65;13.48;;;;;;;;;;5073430;28;20448;-61
2020/12/29 13:04:04;;;;;;;30.08;15.45;;;;;;;;;;5090834;28;20441;-60
2020/12/29 13:06:30;;;;;;;35.70;15.43;;;;;;;;;;5091118;28;20052;-59
2020/12/29 13:08:56;;;;;;;33.43;15.63;;;;;;;;;;5090290;28;20073;-60
2020/12/29 13:11:21;;;;;;;35.97;16.30;;;;;;;;;;5072815;28;20119;-60
2020/12/29 13:13:46;;;;;;;32.47;14.00;;;;;;;;;;5090159;28;20032;-59
2020/12/29 13:16:12;;;;;;;29.43;17.03;;;;;;;;;;5073573;28;20272;-60
2020/12/29 13:18:38;;;;;;;29.45;13.77;;;;;;;;;;5073120;28;20103;-61
2020/12/29 13:21:03;;;;;;;26.37;13.77;;;;;;;;;;5090701;28;20387;-60
2020/12/29 13:23:28;;;;;;;31.77;15.13;;;;;;;;;;5073376;28;20077;-60
2020/12/29 13:25:54;;;;;;;29.70;15.77;;;;;;;;;;5090524;28;20055;-60
2020/12/29 13:28:19;;;;;;;27.97;15.27;;;;;;;;;;5072965;28;20032;-61
2020/12/29 13:30:45;;;;;;;27.83;15.00;;;;;;;;;;5090917;28;20096;-59
2020/12/29 13:33:11;;;;;;;27.83;13.65;;;;;;;;;;5090832;28;20043;-60
2020/12/29 13:35:38;;;;;;;21.73;12.67;;;;;;;;;;5072760;28;20036;-60
2020/12/29 13:38:04;;;;;;;28.58;13.85;;;;;;;;;;5090003;28;20024;-60
2020/12/29 13:40:30;;;;;;;26.15;13.20;;;;;;;;;;5090937;28;20367;-60
2020/12/29 13:42:55;;;;;;;28.37;12.93;;;;;;;;;;5072336;28;20214;-60
2020/12/29 13:45:20;;;;;;;25.73;12.87;;;;;;;;;;5072507;28;20028;-59
2020/12/29 13:47:46;;;;;;;25.00;14.60;;;;;;;;;;5072557;28;20036;-60
2020/12/29 13:50:11;;;;;;;29.27;14.30;;;;;;;;;;5090626;28;20028;-62
2020/12/29 13:52:37;;;;;;;25.23;12.95;;;;;;;;;;5072749;28;20027;-60
2020/12/29 13:55:02;;;;;;;25.53;13.20;;;;;;;;;;5090082;28;20094;-60
2020/12/29 13:57:27;;;;;;;23.43;12.97;;;;;;;;;;5090431;28;20051;-61
2020/12/29 13:59:53;;;;;;;24.40;13.23;;;;;;;;;;5090015;28;20086;-60
2020/12/29 14:02:18;;;;;;;27.20;13.10;;;;;;;;;;5090367;28;20046;-59
2020/12/29 14:04:44;;;;;;;28.67;12.93;;;;;;;;;;5072528;28;20581;-60
2020/12/29 14:07:09;;;;;;;21.43;12.57;;;;;;;;;;5089972;28;20193;-60
2020/12/29 14:09:36;;;;;;;17.30;8.33;;;;;;;;;;5093180;28;20483;-59
2020/12/29 14:12:01;;;;;;;;;;;;;;;;;;5075672;28;20039;-59